createdAt,value
2022-11-02T00:02:28.289Z,99193.00
2022-11-02T00:05:31.129Z,99189.22
2022-11-02T00:08:33.904Z,99194.50
2022-11-02T00:11:38.305Z,99188.13
2022-11-02T00:14:40.957Z,99199.25
2022-11-02T00:17:45.709Z,99192.75
2022-11-02T00:20:48.387Z,99192.75
2022-11-02T00:23:51.418Z,99194.19
2022-11-02T00:26:55.607Z,99188.19
2022-11-02T00:29:58.278Z,99190.19
2022-11-02T00:33:01.144Z,99200.03
2022-11-02T00:36:04.032Z,99201.09
2022-11-02T00:39:06.675Z,99204.53
2022-11-02T00:42:11.228Z,99195.47
2022-11-02T00:45:13.935Z,99198.50
2022-11-02T00:48:16.533Z,99201.78
2022-11-02T00:51:19.093Z,99198.03
2022-11-02T00:54:25.893Z,99204.03
2022-11-02T00:57:32.401Z,99198.16
2022-11-02T01:00:35.326Z,99205.28
2022-11-02T01:03:37.961Z,99216.84
2022-11-02T01:06:40.550Z,99214.22
2022-11-02T01:09:43.258Z,99214.72
2022-11-02T01:12:47.213Z,99200.69
2022-11-02T01:15:49.853Z,99208.13
2022-11-02T01:18:53.937Z,99211.16
2022-11-02T01:21:56.586Z,99200.41
2022-11-02T01:24:59.204Z,99200.59
2022-11-02T01:28:03.178Z,99205.22
2022-11-02T01:31:06.615Z,99197.00
2022-11-02T01:34:09.268Z,99198.66
2022-11-02T01:37:11.973Z,99183.56
2022-11-02T01:40:14.915Z,99197.75
2022-11-02T01:43:23.462Z,99193.03
2022-11-02T01:46:36.522Z,99195.53
2022-11-02T01:49:40.508Z,99195.13
2022-11-02T01:52:43.134Z,99189.88
2022-11-02T01:55:46.020Z,99186.19
2022-11-02T01:58:55.020Z,99181.25
2022-11-02T02:01:57.750Z,99188.13
2022-11-02T02:05:04.301Z,99184.06
2022-11-02T02:08:08.212Z,99167.16
2022-11-02T02:11:28.077Z,99163.78
2022-11-02T02:14:32.071Z,99157.19
2022-11-02T02:17:42.259Z,99153.19
2022-11-02T02:20:58.503Z,99146.34
2022-11-02T02:24:26.940Z,99148.44
2022-11-02T02:27:32.614Z,99145.81
2022-11-02T02:30:39.925Z,99138.00
2022-11-02T02:33:45.902Z,99153.50
2022-11-02T02:36:52.161Z,99149.34
2022-11-02T02:39:59.142Z,99144.19
2022-11-02T02:43:06.051Z,99148.66
2022-11-02T02:46:14.201Z,99146.34
2022-11-02T02:49:22.659Z,99153.72
2022-11-02T02:52:28.223Z,99153.63
2022-11-02T02:55:35.488Z,99152.94
2022-11-02T02:58:40.278Z,99140.81
2022-11-02T03:01:45.257Z,99138.38
2022-11-02T03:04:47.966Z,99136.34
2022-11-02T03:07:51.060Z,99131.53
2022-11-02T03:10:57.802Z,99133.03
2022-11-02T03:14:08.995Z,99126.88
2022-11-02T03:17:16.909Z,99129.19
2022-11-02T03:20:24.696Z,99131.09
2022-11-02T03:23:31.560Z,99137.25
2022-11-02T03:26:40.348Z,99136.94
2022-11-02T03:29:45.789Z,99147.25
2022-11-02T03:32:54.359Z,99151.28
2022-11-02T03:35:59.606Z,99149.75
2022-11-02T03:39:06.220Z,99145.38
2022-11-02T03:42:12.180Z,99149.88
2022-11-02T03:45:17.234Z,99151.28
2022-11-02T03:48:22.831Z,99157.13
2022-11-02T03:51:26.967Z,99157.34
2022-11-02T03:54:36.700Z,99150.56
2022-11-02T03:57:44.315Z,99158.06
2022-11-02T04:00:48.920Z,99170.31
2022-11-02T04:03:52.963Z,99163.50
2022-11-02T04:06:55.629Z,99162.31
2022-11-02T04:09:58.198Z,99165.84
2022-11-02T04:13:18.584Z,99165.78
2022-11-02T04:16:27.606Z,99169.41
2022-11-02T04:19:31.115Z,99168.69
2022-11-02T04:22:51.484Z,99172.22
2022-11-02T04:25:55.046Z,99168.50
2022-11-02T04:28:57.672Z,99173.66
2022-11-02T04:32:00.270Z,99174.56
2022-11-02T04:35:03.475Z,99169.25
2022-11-02T04:38:23.599Z,99176.03
2022-11-02T04:41:44.529Z,99181.38
2022-11-02T04:44:47.122Z,99180.28
2022-11-02T04:47:49.885Z,99193.63
2022-11-02T04:50:54.028Z,99185.59
2022-11-02T04:53:57.443Z,99189.22
2022-11-02T04:57:00.000Z,99184.97
2022-11-02T05:00:02.651Z,99190.13
2022-11-02T05:03:08.117Z,99196.94
2022-11-02T05:06:15.843Z,99194.56
2022-11-02T05:09:18.680Z,99189.56
2022-11-02T05:12:24.180Z,99191.28
2022-11-02T05:15:30.809Z,99193.78
2022-11-02T05:18:33.682Z,99188.09
2022-11-02T05:21:37.591Z,99192.59
2022-11-02T05:24:40.198Z,99199.56
2022-11-02T05:27:42.858Z,99196.72
2022-11-02T05:30:45.494Z,99203.00
2022-11-02T05:33:48.066Z,99204.00
2022-11-02T05:36:52.026Z,99212.66
2022-11-02T05:39:58.530Z,99212.88
2022-11-02T05:43:01.451Z,99214.94
2022-11-02T05:46:04.607Z,99210.22
2022-11-02T05:49:07.232Z,99211.69
2022-11-02T05:52:11.209Z,99214.31
2022-11-02T05:55:13.886Z,99214.31
2022-11-02T05:58:16.658Z,99218.44
2022-11-02T06:01:19.244Z,99217.94
2022-11-02T06:04:21.945Z,99215.53
2022-11-02T06:07:25.964Z,99211.56
2022-11-02T06:10:29.167Z,99221.22
2022-11-02T06:13:31.749Z,99230.72
2022-11-02T06:16:34.402Z,99231.72
2022-11-02T06:19:37.240Z,99231.31
2022-11-02T06:22:41.757Z,99233.63
2022-11-02T06:25:44.546Z,99239.75
2022-11-02T06:28:47.931Z,99229.94
2022-11-02T06:31:50.487Z,99240.75
2022-11-02T06:34:53.194Z,99244.66
2022-11-02T06:37:57.127Z,99247.09
2022-11-02T06:41:02.165Z,99253.75
2022-11-02T06:44:05.192Z,99257.34
2022-11-02T06:47:08.037Z,99266.22
2022-11-02T06:50:11.137Z,99271.88
2022-11-02T06:53:15.179Z,99270.75
2022-11-02T06:56:18.387Z,99283.47
2022-11-02T06:59:23.890Z,99291.53
2022-11-02T07:02:26.645Z,99298.00
2022-11-02T07:05:29.350Z,99301.38
2022-11-02T07:08:33.340Z,99307.81
2022-11-02T07:11:35.923Z,99316.69
2022-11-02T07:14:38.618Z,99319.28
2022-11-02T07:17:41.440Z,99327.84
2022-11-02T07:20:44.010Z,99331.19
2022-11-02T07:23:47.985Z,99342.50
2022-11-02T07:26:50.857Z,99333.72
2022-11-02T07:29:53.488Z,99345.03
2022-11-02T07:32:56.191Z,99339.97
2022-11-02T07:35:58.809Z,99351.59
2022-11-02T07:39:02.815Z,99357.38
2022-11-02T07:42:07.027Z,99348.78
2022-11-02T07:45:10.332Z,99359.94
2022-11-02T07:48:12.990Z,99356.47
2022-11-02T07:51:15.832Z,99358.47
2022-11-02T07:54:19.842Z,99353.03
2022-11-02T07:57:22.475Z,99357.47
2022-11-02T08:00:25.546Z,99361.31
2022-11-02T08:03:28.732Z,99356.94
2022-11-02T08:06:31.535Z,99365.50
2022-11-02T08:09:35.608Z,99363.59
2022-11-02T08:12:38.252Z,99366.22
2022-11-02T08:15:41.302Z,99373.06
2022-11-02T08:18:44.009Z,99368.78
2022-11-02T08:21:46.613Z,99357.91
2022-11-02T08:24:50.614Z,99363.88
2022-11-02T08:27:53.726Z,99373.06
2022-11-02T08:30:56.539Z,99372.53
2022-11-02T08:33:59.614Z,99368.72
2022-11-02T08:37:02.329Z,99375.41
2022-11-02T08:40:07.869Z,99371.34
2022-11-02T08:43:12.466Z,99370.06
2022-11-02T08:46:16.460Z,99374.00
2022-11-02T08:49:20.312Z,99377.66
2022-11-02T08:52:23.143Z,99383.09
2022-11-02T08:55:27.194Z,99378.38
2022-11-02T08:58:29.996Z,99377.34
2022-11-02T09:01:32.951Z,99375.03
2022-11-02T09:04:35.631Z,99381.25
2022-11-02T09:07:38.472Z,99377.88
2022-11-02T09:10:42.863Z,99379.03
2022-11-02T09:13:45.550Z,99380.00
2022-11-02T09:16:48.140Z,99381.16
2022-11-02T09:19:50.914Z,99371.94
2022-11-02T09:22:53.709Z,99376.75
2022-11-02T09:25:58.831Z,99371.84
2022-11-02T09:29:01.547Z,99391.66
2022-11-02T09:32:04.223Z,99386.00
2022-11-02T09:35:09.409Z,99383.78
2022-11-02T09:38:12.799Z,99387.38
2022-11-02T09:41:19.064Z,99387.97
2022-11-02T09:44:27.600Z,99377.06
2022-11-02T09:51:01.962Z,99385.19
2022-11-02T09:54:13.064Z,99393.19
2022-11-02T09:57:22.061Z,99403.88
2022-11-02T10:00:25.132Z,99411.50
2022-11-02T10:03:36.357Z,99412.63
2022-11-02T10:06:42.119Z,99410.72
2022-11-02T10:09:51.192Z,99409.47
2022-11-02T10:12:59.778Z,99412.50
2022-11-02T10:16:06.950Z,99409.88
2022-11-02T10:19:13.578Z,99400.06
2022-11-02T10:22:16.936Z,99410.47
2022-11-02T10:25:19.686Z,99389.78
2022-11-02T10:28:27.678Z,99390.13
2022-11-02T10:31:32.550Z,99395.78
2022-11-02T10:34:35.541Z,99393.44
2022-11-02T10:37:50.226Z,99393.94
2022-11-02T10:41:06.911Z,99392.50
2022-11-02T10:44:20.769Z,99384.25
2022-11-02T10:47:25.571Z,99385.44
2022-11-02T10:50:37.898Z,99384.19
2022-11-02T10:53:43.185Z,99382.06
2022-11-02T10:56:47.631Z,99388.28
2022-11-02T11:00:24.817Z,99397.81
2022-11-02T11:03:27.556Z,99397.47
2022-11-02T11:06:32.108Z,99392.34
2022-11-02T11:09:47.536Z,99396.09
2022-11-02T11:12:50.276Z,99390.75
2022-11-02T11:15:54.378Z,99393.44
2022-11-02T11:22:28.090Z,99382.97
2022-11-02T11:25:30.699Z,99381.09
2022-11-02T11:28:35.809Z,99374.69
2022-11-02T11:31:40.063Z,99375.28
2022-11-02T11:34:44.088Z,99374.03
2022-11-02T11:37:49.183Z,99366.53
2022-11-02T11:40:54.429Z,99383.09
2022-11-02T11:43:57.206Z,99373.78
2022-11-02T11:47:01.360Z,99375.34
2022-11-02T11:50:25.273Z,99370.72
2022-11-02T11:53:31.573Z,99349.59
2022-11-02T11:56:34.390Z,99354.91
2022-11-02T11:59:46.794Z,99353.81
2022-11-02T12:03:03.998Z,99350.41
2022-11-02T12:06:16.596Z,99351.69
2022-11-02T12:09:25.772Z,99342.59
2022-11-02T12:12:35.829Z,99333.25
2022-11-02T12:15:49.665Z,99332.47
2022-11-02T12:19:20.086Z,99330.78
2022-11-02T12:22:26.965Z,99338.13
2022-11-02T12:25:40.979Z,99324.34
2022-11-02T12:28:57.621Z,99304.19
2022-11-02T12:32:10.111Z,99305.13
2022-11-02T12:35:54.372Z,99300.19
2022-11-02T12:39:08.219Z,99316.97
2022-11-02T12:42:22.772Z,99317.75
2022-11-02T12:45:29.954Z,99320.47
2022-11-02T12:48:42.010Z,99311.56
2022-11-02T12:51:51.049Z,99309.34
2022-11-02T12:54:56.570Z,99305.22
2022-11-02T12:58:03.109Z,99310.56
2022-11-02T13:01:13.692Z,99304.88
2022-11-02T13:04:24.540Z,99297.34
2022-11-02T13:07:34.440Z,99306.19
2022-11-02T13:10:41.178Z,99294.22
2022-11-02T13:13:46.256Z,99310.69
2022-11-02T13:16:52.182Z,99294.81
2022-11-02T13:19:57.640Z,99291.53
2022-11-02T13:23:05.849Z,99275.38
2022-11-02T13:26:12.209Z,99272.72
2022-11-02T13:29:20.649Z,99278.88
2022-11-02T13:32:32.478Z,99278.63
2022-11-02T13:35:37.638Z,99276.34
2022-11-02T13:38:46.025Z,99277.78
2022-11-02T13:42:13.111Z,99278.69
2022-11-02T13:45:36.975Z,99273.88
2022-11-02T13:48:49.416Z,99272.66
2022-11-02T13:51:55.463Z,99273.78
2022-11-02T13:55:03.141Z,99280.34
2022-11-02T13:58:06.815Z,99275.09
2022-11-02T14:01:11.592Z,99269.53
2022-11-02T14:04:15.913Z,99269.09
2022-11-02T14:07:24.207Z,99272.81
2022-11-02T14:10:29.566Z,99267.63
2022-11-02T14:14:08.410Z,99271.63
2022-11-02T14:17:13.431Z,99269.53
2022-11-02T14:20:34.697Z,99268.06
2022-11-02T14:23:39.384Z,99274.50
2022-11-02T14:26:57.077Z,99268.47
2022-11-02T14:30:00.211Z,99274.97
2022-11-02T14:33:05.219Z,99271.09
2022-11-02T14:36:11.386Z,99271.91
2022-11-02T14:39:18.590Z,99272.19
2022-11-02T14:42:44.116Z,99268.88
2022-11-02T14:45:57.546Z,99270.88
2022-11-02T14:49:02.020Z,99276.63
2022-11-02T14:52:08.755Z,99277.34
2022-11-02T14:55:27.505Z,99274.59
2022-11-02T14:58:34.411Z,99268.25
2022-11-02T15:01:49.890Z,99265.88
2022-11-02T15:04:54.142Z,99263.44
2022-11-02T15:07:59.935Z,99271.06
2022-11-02T15:11:36.061Z,99255.25
2022-11-02T15:15:00.873Z,99247.31
2022-11-02T15:18:33.812Z,99250.44
2022-11-02T15:21:36.566Z,99254.63
2022-11-02T15:24:39.906Z,99245.50
2022-11-02T15:27:42.686Z,99250.56
2022-11-02T15:30:48.399Z,99243.47
2022-11-02T15:33:53.753Z,99244.72
2022-11-02T15:36:57.123Z,99240.97
2022-11-02T15:40:02.121Z,99242.13
2022-11-02T15:43:11.154Z,99231.97
2022-11-02T15:46:27.737Z,99225.81
2022-11-02T15:49:42.463Z,99236.72
2022-11-02T15:53:21.554Z,99240.97
2022-11-02T15:56:33.445Z,99232.78
2022-11-02T15:59:54.933Z,99233.47
2022-11-02T16:03:03.995Z,99232.03
2022-11-02T16:06:06.855Z,99228.50
2022-11-02T16:09:30.977Z,99224.28
2022-11-02T16:12:35.783Z,99227.78
2022-11-02T16:15:42.254Z,99230.47
2022-11-02T16:18:51.018Z,99224.34
2022-11-02T16:21:58.463Z,99228.19
2022-11-02T16:25:09.798Z,99229.94
2022-11-02T16:28:18.783Z,99222.84
2022-11-02T16:31:22.467Z,99218.28
2022-11-02T16:34:28.816Z,99226.94
2022-11-02T16:37:31.690Z,99228.41
2022-11-02T16:40:34.389Z,99236.13
2022-11-02T16:43:42.974Z,99227.81
2022-11-02T16:46:53.498Z,99230.84
2022-11-02T16:50:00.473Z,99219.44
2022-11-02T16:53:03.328Z,99215.88
2022-11-02T16:56:27.845Z,99229.78
2022-11-02T16:59:30.490Z,99218.28
2022-11-02T17:02:36.062Z,99213.06
2022-11-02T17:05:42.871Z,99208.16
2022-11-02T17:08:46.443Z,99211.13
2022-11-02T17:11:49.443Z,99218.22
2022-11-02T17:14:52.121Z,99205.66
2022-11-02T17:18:16.505Z,99213.22
2022-11-02T17:21:29.235Z,99213.75
2022-11-02T17:24:33.199Z,99209.09
2022-11-02T17:27:39.383Z,99209.78
2022-11-02T17:30:48.391Z,99202.97
2022-11-02T17:33:52.029Z,99195.03
2022-11-02T17:36:55.961Z,99191.09
2022-11-02T17:40:02.072Z,99190.41
2022-11-02T17:43:04.865Z,99186.34
2022-11-02T17:46:09.578Z,99190.31
2022-11-02T17:49:12.181Z,99185.31
2022-11-02T17:52:25.480Z,99179.91
2022-11-02T17:55:29.628Z,99184.47
2022-11-02T17:58:32.329Z,99184.56
2022-11-02T18:01:35.144Z,99183.94
2022-11-02T18:04:38.417Z,99180.72
2022-11-02T18:07:42.400Z,99164.25
2022-11-02T18:10:46.209Z,99165.84
2022-11-02T18:13:48.822Z,99167.28
2022-11-02T18:16:52.870Z,99168.13
2022-11-02T18:19:55.538Z,99168.25
2022-11-02T18:23:00.755Z,99165.91
2022-11-02T18:26:03.357Z,99163.78
2022-11-02T18:29:06.170Z,99163.09
2022-11-02T18:32:08.982Z,99168.25
2022-11-02T18:35:13.335Z,99160.56
2022-11-02T18:38:17.382Z,99152.31
2022-11-02T18:41:29.871Z,99158.16
2022-11-02T18:44:32.618Z,99159.56
2022-11-02T18:47:35.498Z,99162.59
2022-11-02T18:50:38.313Z,99166.25
2022-11-02T18:53:42.264Z,99168.78
2022-11-02T18:56:44.979Z,99159.16
2022-11-02T18:59:47.692Z,99156.75
2022-11-02T19:02:50.309Z,99155.78
2022-11-02T19:06:26.672Z,99140.41
2022-11-02T19:09:31.698Z,99149.69
2022-11-02T19:12:34.340Z,99148.72
2022-11-02T19:15:41.394Z,99148.88
2022-11-02T19:18:45.261Z,99149.88
2022-11-02T19:21:48.671Z,99145.44
2022-11-02T19:24:53.340Z,99154.44
2022-11-02T19:27:55.936Z,99141.19
2022-11-02T19:30:58.544Z,99140.19
2022-11-02T19:34:01.533Z,99139.38
2022-11-02T19:37:04.497Z,99146.34
2022-11-02T19:40:10.040Z,99145.72
2022-11-02T19:43:12.627Z,99147.34
2022-11-02T19:46:16.368Z,99141.09
2022-11-02T19:49:18.977Z,99147.91
2022-11-02T19:52:22.370Z,99150.25
2022-11-02T19:55:29.355Z,99146.00
2022-11-02T19:58:32.394Z,99150.50
2022-11-02T20:01:36.932Z,99152.75
2022-11-02T20:04:42.591Z,99142.56
2022-11-02T20:07:45.319Z,99133.50
2022-11-02T20:10:49.241Z,99134.69
2022-11-02T20:13:52.528Z,99138.63
2022-11-02T20:17:10.840Z,99137.09
2022-11-02T20:20:18.275Z,99129.41
2022-11-02T20:23:21.381Z,99124.75
2022-11-02T20:26:27.343Z,99121.16
2022-11-02T20:29:30.539Z,99122.84
2022-11-02T20:32:33.124Z,99120.94
2022-11-02T20:35:35.961Z,99119.94
2022-11-02T20:38:39.188Z,99126.50
2022-11-02T20:41:43.198Z,99120.91
2022-11-02T20:44:49.262Z,99122.31
2022-11-02T20:47:51.904Z,99125.31
2022-11-02T20:50:54.763Z,99122.56
2022-11-02T20:53:57.417Z,99116.69
2022-11-02T20:57:01.365Z,99113.75
2022-11-02T21:00:05.362Z,99112.34
2022-11-02T21:03:08.146Z,99106.44
2022-11-02T21:06:15.780Z,99106.75
2022-11-02T21:09:19.181Z,99113.50
2022-11-02T21:12:41.136Z,99110.16
2022-11-02T21:15:43.989Z,99112.56
2022-11-02T21:18:46.849Z,99107.28
2022-11-02T21:21:49.466Z,99116.78
2022-11-02T21:24:52.044Z,99107.50
2022-11-02T21:27:56.551Z,99108.75
2022-11-02T21:31:03.365Z,99104.31
2022-11-02T21:34:05.931Z,99114.78
2022-11-02T21:37:08.529Z,99110.53
2022-11-02T21:40:11.902Z,99110.03
2022-11-02T21:43:16.142Z,99098.31
2022-11-02T21:46:20.012Z,99084.69
2022-11-02T21:49:22.861Z,99088.53
2022-11-02T21:52:25.420Z,99086.50
2022-11-02T21:55:28.037Z,99082.09
2022-11-02T21:58:32.273Z,99075.44
2022-11-02T22:01:49.825Z,99068.22
2022-11-02T22:04:53.489Z,99063.28
2022-11-02T22:08:13.678Z,99057.91
2022-11-02T22:11:21.376Z,99057.88
2022-11-02T22:14:25.292Z,99065.34
2022-11-02T22:17:48.547Z,99060.63
2022-11-02T22:20:54.761Z,99057.41
2022-11-02T22:23:57.884Z,99060.56
2022-11-02T22:27:00.554Z,99059.75
2022-11-02T22:30:05.063Z,99057.13
2022-11-02T22:33:09.160Z,99063.78
2022-11-02T22:36:13.745Z,99064.63
2022-11-02T22:39:16.413Z,99064.53
2022-11-02T22:42:19.017Z,99058.06
2022-11-02T22:45:22.912Z,99055.25
2022-11-02T22:48:25.502Z,99059.66
2022-11-02T22:51:30.013Z,99048.06
2022-11-02T22:54:32.596Z,99047.84
2022-11-02T22:57:35.150Z,99041.53
2022-11-02T23:00:39.527Z,99035.03
2022-11-02T23:03:42.180Z,99025.84
2022-11-02T23:06:44.790Z,99030.78
2022-11-02T23:09:47.402Z,99035.09
2022-11-02T23:12:49.981Z,99034.94
2022-11-02T23:16:14.081Z,99029.28
2022-11-02T23:19:31.044Z,99029.25
2022-11-02T23:22:51.627Z,99023.84
2022-11-02T23:25:57.249Z,99022.47
2022-11-02T23:29:17.421Z,99025.75
2022-11-02T23:32:27.369Z,99033.00
2022-11-02T23:35:47.637Z,99031.75
2022-11-02T23:39:08.431Z,99027.34
2022-11-02T23:42:11.030Z,99031.38
2022-11-02T23:45:13.792Z,99022.94
2022-11-02T23:48:17.773Z,99015.66
2022-11-02T23:51:38.206Z,99017.75
2022-11-02T23:54:58.590Z,99019.47
2022-11-02T23:58:01.164Z,99015.94
